createdAt,value
2023-04-04T00:02:05.552Z,542.98
2023-04-04T00:04:33.570Z,1142.11
2023-04-04T00:07:01.215Z,521.69
2023-04-04T00:09:30.126Z,1273.19
2023-04-04T00:11:57.983Z,1504.32
2023-04-04T00:14:25.695Z,407.39
2023-04-04T00:16:55.589Z,1678.61
2023-04-04T00:19:23.177Z,381.91
2023-04-04T00:21:50.747Z,372.63
2023-04-04T00:24:20.810Z,368.75
2023-04-04T00:26:49.732Z,1267.50
2023-04-04T00:29:17.321Z,1265.76
2023-04-04T00:31:45.310Z,798.27
2023-04-04T00:34:13.007Z,1710.92
2023-04-04T00:36:40.652Z,319.71
2023-04-04T00:39:08.350Z,305.69
2023-04-04T00:41:36.286Z,313.76
2023-04-04T00:44:06.335Z,278.21
2023-04-04T00:46:34.048Z,744.23
2023-04-04T00:49:01.713Z,1115.07
2023-04-04T00:51:29.284Z,352.11
2023-04-04T00:53:56.903Z,529.80
2023-04-04T00:56:25.077Z,303.22
2023-04-04T00:58:56.540Z,522.40
2023-04-04T01:01:26.191Z,523.13
2023-04-04T01:03:54.365Z,310.92
2023-04-04T01:06:22.324Z,276.70
2023-04-04T01:08:52.139Z,289.01
2023-04-04T01:11:19.889Z,296.94
2023-04-04T01:13:48.435Z,248.20
2023-04-04T01:16:16.140Z,253.93
2023-04-04T01:18:48.245Z,243.51
2023-04-04T01:21:16.850Z,258.07
2023-04-04T01:23:59.971Z,273.07
2023-04-04T01:26:29.689Z,227.22
2023-04-04T01:28:59.389Z,238.11
2023-04-04T01:31:31.253Z,254.42
2023-04-04T01:34:08.107Z,223.63
2023-04-04T01:36:43.186Z,249.67
2023-04-04T01:39:22.646Z,222.77
2023-04-04T01:41:52.293Z,247.73
2023-04-04T01:44:20.004Z,277.80
2023-04-04T01:46:47.654Z,268.43
2023-04-04T01:49:15.351Z,248.76
2023-04-04T01:51:43.367Z,232.20
2023-04-04T01:54:11.353Z,1282.78
2023-04-04T01:56:39.096Z,2569.05
2023-04-04T01:59:08.163Z,227.88
2023-04-04T02:01:36.369Z,220.35
2023-04-04T02:04:05.290Z,463.38
2023-04-04T02:06:33.072Z,252.74
2023-04-04T02:09:00.782Z,752.17
2023-04-04T02:11:28.440Z,1474.53
2023-04-04T02:13:56.076Z,1132.14
2023-04-04T02:16:25.025Z,389.72
2023-04-04T02:18:52.690Z,914.12
2023-04-04T02:21:20.809Z,225.35
2023-04-04T02:23:48.504Z,214.53
2023-04-04T02:26:16.137Z,217.19
2023-04-04T02:28:43.821Z,296.09
2023-04-04T02:31:11.517Z,1292.99
2023-04-04T02:33:40.593Z,262.93
2023-04-04T02:36:08.680Z,861.60
2023-04-04T02:38:36.388Z,578.76
2023-04-04T02:41:04.090Z,813.48
2023-04-04T02:43:34.748Z,3262.60
2023-04-04T02:46:14.328Z,923.93
2023-04-04T02:48:50.131Z,816.61
2023-04-04T02:51:17.744Z,692.28
2023-04-04T02:53:45.820Z,554.38
2023-04-04T02:56:13.484Z,306.74
2023-04-04T02:58:42.650Z,299.02
2023-04-04T03:01:10.475Z,293.64
2023-04-04T03:03:38.291Z,1751.22
2023-04-04T03:06:07.511Z,1536.22
2023-04-04T03:08:35.477Z,593.91
2023-04-04T03:11:03.153Z,300.98
2023-04-04T03:13:30.808Z,965.71
2023-04-04T03:16:00.552Z,2137.59
2023-04-04T03:18:29.084Z,2200.90
2023-04-04T03:20:56.787Z,632.17
2023-04-04T03:23:25.790Z,634.04
2023-04-04T03:25:53.453Z,894.33
2023-04-04T03:28:21.086Z,1031.49
2023-04-04T03:30:48.773Z,366.53
2023-04-04T03:33:16.396Z,296.49
2023-04-04T03:35:44.359Z,1106.29
2023-04-04T03:38:12.085Z,1777.09
2023-04-04T03:40:41.225Z,211.01
2023-04-04T03:43:09.024Z,1223.01
2023-04-04T03:45:36.996Z,252.75
2023-04-04T03:48:04.926Z,236.42
2023-04-04T03:50:32.620Z,363.62
2023-04-04T03:53:00.318Z,304.30
2023-04-04T03:55:28.261Z,240.69
2023-04-04T03:57:57.636Z,1132.34
2023-04-04T04:00:25.456Z,422.90
2023-04-04T04:02:53.225Z,194.69
2023-04-04T04:05:21.047Z,228.14
2023-04-04T04:07:48.846Z,312.91
2023-04-04T04:10:16.758Z,323.46
2023-04-04T04:12:44.408Z,294.99
2023-04-04T04:15:13.813Z,238.88
2023-04-04T04:17:41.786Z,245.61
2023-04-04T04:20:10.773Z,269.29
2023-04-04T04:22:38.467Z,230.17
2023-04-04T04:25:06.483Z,227.56
2023-04-04T04:27:34.144Z,309.37
2023-04-04T04:30:01.961Z,320.03
2023-04-04T04:32:31.467Z,400.31
2023-04-04T04:34:59.159Z,347.17
2023-04-04T04:37:26.804Z,707.24
2023-04-04T04:39:54.507Z,920.69
2023-04-04T04:42:22.630Z,1018.64
2023-04-04T04:44:50.547Z,384.88
2023-04-04T04:47:18.166Z,324.65
2023-04-04T04:49:47.073Z,359.15
2023-04-04T04:52:14.739Z,355.17
2023-04-04T04:54:42.577Z,336.23
2023-04-04T04:57:10.381Z,324.46
2023-04-04T04:59:39.039Z,287.70
2023-04-04T05:02:07.079Z,285.38
2023-04-04T05:04:34.770Z,268.78
2023-04-04T05:07:03.844Z,336.26
2023-04-04T05:09:32.657Z,373.45
2023-04-04T05:12:00.775Z,334.02
2023-04-04T05:14:28.356Z,366.38
2023-04-04T05:16:56.143Z,379.40
2023-04-04T05:19:24.132Z,379.92
2023-04-04T05:21:51.882Z,398.86
2023-04-04T05:24:20.911Z,358.13
2023-04-04T05:26:48.523Z,278.64
2023-04-04T05:29:16.192Z,304.97
2023-04-04T05:31:45.298Z,319.71
2023-04-04T05:34:13.503Z,356.30
2023-04-04T05:36:41.435Z,350.43
2023-04-04T05:39:09.606Z,295.63
2023-04-04T05:41:39.885Z,358.14
2023-04-04T05:44:07.639Z,565.24
2023-04-04T05:46:35.498Z,233.13
2023-04-04T05:49:03.271Z,231.84
2023-04-04T05:51:30.945Z,290.78
2023-04-04T05:53:58.599Z,314.03
2023-04-04T05:56:26.406Z,327.65
2023-04-04T05:58:56.662Z,475.19
2023-04-04T06:01:24.329Z,338.83
2023-04-04T06:03:52.143Z,367.84
2023-04-04T06:06:20.269Z,293.48
2023-04-04T06:08:53.742Z,317.61
2023-04-04T06:11:23.927Z,305.58
2023-04-04T06:13:53.617Z,334.36
2023-04-04T06:16:24.380Z,311.78
2023-04-04T06:18:52.125Z,327.91
2023-04-04T06:21:19.954Z,343.53
2023-04-04T06:23:47.523Z,403.31
2023-04-04T06:26:15.638Z,218.43
2023-04-04T06:28:52.380Z,485.79
2023-04-04T06:31:24.193Z,364.66
2023-04-04T06:33:52.466Z,894.61
2023-04-04T06:36:20.316Z,439.66
2023-04-04T06:38:48.043Z,246.47
2023-04-04T06:41:15.826Z,295.17
2023-04-04T06:43:44.811Z,277.83
2023-04-04T06:46:12.616Z,260.19
2023-04-04T06:48:41.800Z,269.37
2023-04-04T06:51:09.812Z,710.57
2023-04-04T06:53:39.871Z,206.85
2023-04-04T06:56:10.927Z,170.66
2023-04-04T06:58:39.060Z,160.58
2023-04-04T07:01:06.942Z,162.07
2023-04-04T07:03:38.259Z,159.19
2023-04-04T07:06:07.834Z,156.86
2023-04-04T07:08:36.766Z,160.69
2023-04-04T07:11:05.242Z,152.20
2023-04-04T07:13:32.800Z,140.63
2023-04-04T07:16:00.904Z,132.65
2023-04-04T07:18:28.585Z,129.18
2023-04-04T07:20:56.292Z,143.62
2023-04-04T07:23:25.305Z,121.80
2023-04-04T07:25:52.870Z,105.75
2023-04-04T07:28:20.662Z,140.10
2023-04-04T07:30:48.371Z,137.63
2023-04-04T07:33:16.229Z,141.73
2023-04-04T07:35:43.875Z,130.40
2023-04-04T07:38:11.620Z,163.17
2023-04-04T07:40:40.940Z,128.84
2023-04-04T07:43:09.045Z,119.04
2023-04-04T07:45:36.886Z,112.32
2023-04-04T07:48:05.094Z,132.17
2023-04-04T07:50:33.136Z,111.77
2023-04-04T07:53:00.771Z,126.37
2023-04-04T07:55:28.492Z,127.75
2023-04-04T07:57:57.624Z,106.30
2023-04-04T08:00:25.591Z,123.00
2023-04-04T08:02:55.108Z,125.07
2023-04-04T08:05:23.029Z,99.80
2023-04-04T08:07:50.664Z,135.80
2023-04-04T08:10:20.557Z,128.84
2023-04-04T08:12:49.572Z,118.68
2023-04-04T08:15:18.620Z,133.88
2023-04-04T08:17:46.265Z,125.60
2023-04-04T08:20:13.899Z,120.85
2023-04-04T08:22:42.323Z,224.03
2023-04-04T08:25:10.205Z,273.98
2023-04-04T08:27:39.770Z,113.66
2023-04-04T08:30:08.424Z,106.12
2023-04-04T08:32:37.340Z,85.91
2023-04-04T08:35:05.449Z,98.50
2023-04-04T08:37:33.094Z,95.45
2023-04-04T08:40:00.694Z,106.45
2023-04-04T08:42:32.432Z,125.94
2023-04-04T08:45:02.799Z,322.08
2023-04-04T08:47:33.154Z,114.73
2023-04-04T08:50:05.653Z,73.30
2023-04-04T08:52:34.739Z,76.60
2023-04-04T08:55:05.512Z,84.11
2023-04-04T08:57:33.123Z,92.47
2023-04-04T09:00:01.028Z,95.79
2023-04-04T09:02:37.441Z,71.48
2023-04-04T09:05:08.502Z,60.29
2023-04-04T09:07:39.278Z,62.79
2023-04-04T09:10:09.818Z,58.36
2023-04-04T09:12:42.126Z,76.05
2023-04-04T09:15:13.114Z,72.97
2023-04-04T09:17:41.911Z,71.17
2023-04-04T09:20:40.113Z,69.72
2023-04-04T09:23:10.271Z,58.75
2023-04-04T09:28:11.489Z,48.91
2023-04-04T09:30:39.495Z,43.03
2023-04-04T09:33:10.271Z,40.18
2023-04-04T09:35:43.918Z,47.69
2023-04-04T09:38:12.762Z,61.63
2023-04-04T09:40:42.495Z,51.70
2023-04-04T09:43:12.326Z,50.30
2023-04-04T09:45:45.307Z,54.20
2023-04-04T09:48:13.441Z,75.19
2023-04-04T09:50:47.510Z,76.25
2023-04-04T09:53:18.333Z,60.49
2023-04-04T09:55:50.980Z,80.41
2023-04-04T09:58:25.856Z,67.67
2023-04-04T10:00:56.747Z,76.80
2023-04-04T10:03:25.270Z,63.99
2023-04-04T10:05:59.696Z,98.15
2023-04-04T10:08:31.897Z,67.87
2023-04-04T10:11:11.259Z,74.22
2023-04-04T10:13:41.234Z,159.75
2023-04-04T10:16:10.422Z,71.57
2023-04-04T10:18:40.435Z,73.39
2023-04-04T10:23:42.020Z,63.93
2023-04-04T10:26:11.128Z,148.30
2023-04-04T10:28:39.063Z,61.36
2023-04-04T10:31:15.015Z,61.59
2023-04-04T10:33:50.280Z,71.87
2023-04-04T10:36:24.470Z,81.44
2023-04-04T10:39:04.294Z,86.40
2023-04-04T10:41:33.610Z,62.05
2023-04-04T10:44:14.891Z,78.89
2023-04-04T10:46:49.082Z,63.61
2023-04-04T10:49:18.638Z,62.86
2023-04-04T10:51:56.201Z,61.76
2023-04-04T10:54:26.140Z,53.51
2023-04-04T10:56:55.510Z,58.57
2023-04-04T10:59:25.548Z,40.59
2023-04-04T11:01:58.537Z,38.03
2023-04-04T11:04:32.880Z,59.93
2023-04-04T11:07:16.070Z,82.90
2023-04-04T11:09:56.237Z,58.22
2023-04-04T11:12:30.419Z,58.00
2023-04-04T11:15:08.121Z,50.41
2023-04-04T11:18:17.372Z,34.82
2023-04-04T11:20:54.583Z,32.33
2023-04-04T11:23:25.565Z,36.65
2023-04-04T11:25:54.927Z,34.17
2023-04-04T11:28:28.805Z,44.83
2023-04-04T11:31:26.135Z,39.60
2023-04-04T11:33:56.217Z,36.58
2023-04-04T11:36:53.306Z,40.81
2023-04-04T11:39:31.557Z,38.01
2023-04-04T11:42:05.499Z,67.82
2023-04-04T11:44:39.785Z,51.18
2023-04-04T11:47:11.251Z,51.76
2023-04-04T11:49:41.180Z,45.67
2023-04-04T11:52:11.647Z,44.44
2023-04-04T11:54:47.912Z,76.77
2023-04-04T11:57:18.872Z,58.66
2023-04-04T11:59:49.859Z,55.41
2023-04-04T12:02:21.457Z,51.23
2023-04-04T12:04:52.011Z,59.30
2023-04-04T12:07:20.089Z,53.77
2023-04-04T12:09:54.586Z,53.61
2023-04-04T12:12:23.531Z,135.38
2023-04-04T12:17:21.746Z,52.85
2023-04-04T12:19:50.020Z,45.51
2023-04-04T12:22:17.860Z,37.05
2023-04-04T12:24:46.633Z,36.07
2023-04-04T12:27:18.717Z,63.94
2023-04-04T12:29:47.679Z,64.77
2023-04-04T12:32:15.461Z,68.52
2023-04-04T12:34:47.072Z,59.53
2023-04-04T12:37:17.494Z,59.52
2023-04-04T12:39:48.149Z,53.61
2023-04-04T12:42:22.753Z,38.08
2023-04-04T12:44:51.373Z,45.88
2023-04-04T12:47:19.062Z,29.30
2023-04-04T12:49:48.270Z,23.60
2023-04-04T12:52:20.958Z,25.00
2023-04-04T12:54:59.136Z,26.91
2023-04-04T12:57:38.757Z,33.93
2023-04-04T13:00:08.065Z,42.85
2023-04-04T13:02:38.036Z,24.90
2023-04-04T13:05:07.456Z,31.96
2023-04-04T13:07:37.356Z,33.26
2023-04-04T13:10:06.311Z,40.80
2023-04-04T13:12:59.807Z,54.82
2023-04-04T13:15:49.531Z,78.31
2023-04-04T13:18:19.337Z,54.89
2023-04-04T13:20:47.323Z,34.53
2023-04-04T13:23:15.585Z,34.95
2023-04-04T13:25:43.945Z,31.06
2023-04-04T13:28:13.046Z,31.58
2023-04-04T13:30:40.828Z,28.51
2023-04-04T13:33:08.465Z,29.87
2023-04-04T13:35:36.576Z,30.19
2023-04-04T13:38:04.324Z,31.98
2023-04-04T13:40:32.007Z,27.35
2023-04-04T13:42:59.665Z,63.43
2023-04-04T13:45:28.572Z,27.22
2023-04-04T13:47:56.122Z,22.98
2023-04-04T13:50:26.638Z,28.43
2023-04-04T13:52:54.184Z,38.81
2023-04-04T13:55:22.143Z,32.39
2023-04-04T13:57:49.731Z,34.31
2023-04-04T14:00:18.087Z,35.49
2023-04-04T14:02:47.457Z,32.20
2023-04-04T14:05:16.242Z,30.89
2023-04-04T14:07:43.828Z,59.39
2023-04-04T14:10:11.734Z,50.57
2023-04-04T14:12:39.831Z,24.70
2023-04-04T14:15:08.835Z,26.68
2023-04-04T14:17:36.418Z,25.33
2023-04-04T14:20:08.944Z,26.24
2023-04-04T14:22:36.688Z,30.64
2023-04-04T14:25:06.091Z,21.15
2023-04-04T14:27:33.783Z,23.31
2023-04-04T14:30:01.573Z,25.74
2023-04-04T14:32:29.319Z,29.58
2023-04-04T14:34:56.994Z,29.22
2023-04-04T14:37:25.976Z,40.50
2023-04-04T14:39:53.633Z,54.74
2023-04-04T14:42:21.264Z,34.23
2023-04-04T14:44:49.183Z,31.72
2023-04-04T14:47:16.863Z,41.50
2023-04-04T14:49:44.604Z,53.93
2023-04-04T14:52:13.714Z,31.24
2023-04-04T14:54:42.873Z,30.23
2023-04-04T14:57:10.602Z,40.08
2023-04-04T14:59:38.681Z,121.65
2023-04-04T15:02:06.464Z,29.56
2023-04-04T15:04:34.139Z,68.07
2023-04-04T15:07:01.891Z,36.31
2023-04-04T15:09:29.713Z,60.78
2023-04-04T15:11:59.259Z,79.41
2023-04-04T15:14:26.994Z,29.97
2023-04-04T15:16:54.784Z,36.98
2023-04-04T15:19:22.688Z,31.27
2023-04-04T15:21:50.412Z,34.02
2023-04-04T15:24:18.087Z,33.71
2023-04-04T15:26:46.330Z,49.28
2023-04-04T15:29:15.349Z,38.83
2023-04-04T15:31:43.125Z,29.55
2023-04-04T15:34:11.019Z,33.00
2023-04-04T15:36:38.645Z,38.14
2023-04-04T15:39:06.257Z,45.45
2023-04-04T15:41:33.917Z,35.88
2023-04-04T15:44:01.713Z,65.35
2023-04-04T15:46:31.052Z,47.23
2023-04-04T15:49:00.043Z,33.77
2023-04-04T15:51:27.912Z,30.18
2023-04-04T15:53:56.102Z,50.07
2023-04-04T15:56:23.843Z,40.80
2023-04-04T15:58:51.688Z,30.13
2023-04-04T16:01:19.503Z,30.99
2023-04-04T16:03:48.765Z,29.11
2023-04-04T16:06:16.834Z,51.29
2023-04-04T16:08:44.631Z,43.29
2023-04-04T16:11:12.995Z,32.34
2023-04-04T16:13:40.711Z,39.15
2023-04-04T16:16:08.386Z,44.24
2023-04-04T16:18:36.149Z,46.83
2023-04-04T16:21:06.396Z,52.43
2023-04-04T16:23:35.185Z,109.89
2023-04-04T16:26:02.886Z,408.75
2023-04-04T16:28:30.778Z,99.94
2023-04-04T16:30:58.584Z,41.27
2023-04-04T16:33:28.659Z,43.81
2023-04-04T16:35:57.378Z,47.92
2023-04-04T16:38:26.486Z,34.08
2023-04-04T16:40:54.380Z,49.49
2023-04-04T16:43:22.028Z,25.48
2023-04-04T16:45:49.740Z,27.63
2023-04-04T16:48:17.881Z,33.32
2023-04-04T16:50:46.369Z,31.70
2023-04-04T16:53:14.141Z,30.09
2023-04-04T16:55:43.160Z,32.07
2023-04-04T16:58:11.837Z,33.55
2023-04-04T17:00:39.777Z,40.08
2023-04-04T17:03:08.647Z,41.40
2023-04-04T17:05:36.343Z,40.04
2023-04-04T17:08:04.303Z,41.10
2023-04-04T17:10:31.956Z,37.49
2023-04-04T17:13:01.261Z,38.99
2023-04-04T17:15:28.991Z,41.84
2023-04-04T17:17:57.175Z,42.71
2023-04-04T17:20:24.792Z,35.46
2023-04-04T17:22:52.422Z,38.56
2023-04-04T17:25:20.263Z,36.74
2023-04-04T17:27:47.934Z,49.54
2023-04-04T17:30:17.233Z,45.02
2023-04-04T17:32:44.964Z,35.12
2023-04-04T17:35:12.785Z,37.03
2023-04-04T17:37:40.522Z,37.48
2023-04-04T17:40:09.310Z,40.02
2023-04-04T17:42:37.028Z,40.42
2023-04-04T17:45:08.761Z,51.18
2023-04-04T17:47:40.039Z,53.07
2023-04-04T17:50:08.887Z,40.53
2023-04-04T17:52:37.519Z,45.53
2023-04-04T17:55:07.268Z,55.01
2023-04-04T17:57:34.897Z,55.31
2023-04-04T18:00:03.057Z,51.08
2023-04-04T18:02:30.780Z,51.76
2023-04-04T18:04:59.963Z,63.05
2023-04-04T18:07:27.697Z,57.68
2023-04-04T18:09:55.411Z,61.19
2023-04-04T18:12:26.688Z,54.66
2023-04-04T18:14:54.493Z,59.65
2023-04-04T18:17:22.154Z,59.64
2023-04-04T18:19:49.842Z,59.96
2023-04-04T18:22:19.194Z,62.34
2023-04-04T18:24:48.669Z,56.17
2023-04-04T18:27:20.280Z,56.34
2023-04-04T18:29:48.065Z,57.12
2023-04-04T18:32:15.849Z,65.01
2023-04-04T18:34:45.363Z,64.23
2023-04-04T18:37:13.991Z,61.64
2023-04-04T18:39:42.972Z,66.87
2023-04-04T18:42:10.968Z,56.31
2023-04-04T18:44:38.958Z,69.28
2023-04-04T18:47:07.307Z,66.90
2023-04-04T18:49:35.267Z,58.31
2023-04-04T18:52:02.945Z,65.44
2023-04-04T18:54:30.954Z,50.50
2023-04-04T18:56:59.889Z,52.02
2023-04-04T18:59:29.808Z,50.50
2023-04-04T19:01:57.512Z,55.09
2023-04-04T19:04:25.561Z,61.06
2023-04-04T19:06:53.752Z,61.63
2023-04-04T19:09:21.816Z,65.09
2023-04-04T19:11:52.889Z,50.92
2023-04-04T19:14:21.929Z,63.08
2023-04-04T19:16:50.674Z,54.04
2023-04-04T19:19:18.906Z,48.44
2023-04-04T19:21:46.604Z,40.50
2023-04-04T19:24:14.257Z,47.68
2023-04-04T19:26:43.403Z,43.84
2023-04-04T19:29:17.646Z,49.02
2023-04-04T19:31:46.880Z,58.05
2023-04-04T19:34:15.016Z,58.27
2023-04-04T19:36:42.647Z,50.16
2023-04-04T19:39:11.079Z,53.25
2023-04-04T19:41:40.695Z,59.25
2023-04-04T19:44:19.045Z,53.41
2023-04-04T19:46:48.850Z,55.53
2023-04-04T19:49:18.818Z,56.18
2023-04-04T19:51:51.654Z,48.36
2023-04-04T19:54:25.199Z,49.09
2023-04-04T19:56:58.879Z,66.06
2023-04-04T19:59:54.938Z,68.53
2023-04-04T20:02:48.770Z,69.96
2023-04-04T20:05:55.250Z,71.56
2023-04-04T20:08:23.506Z,58.33
2023-04-04T20:10:56.110Z,52.22
2023-04-04T20:13:23.846Z,59.84
2023-04-04T20:16:01.070Z,80.16
2023-04-04T20:18:32.882Z,58.52
2023-04-04T20:21:04.852Z,75.57
2023-04-04T20:23:48.691Z,71.62
2023-04-04T20:26:41.901Z,68.10
2023-04-04T20:29:11.911Z,81.22
2023-04-04T20:31:42.413Z,60.46
2023-04-04T20:34:32.218Z,57.79
2023-04-04T20:37:02.668Z,59.92
2023-04-04T20:39:38.910Z,67.97
2023-04-04T20:42:33.125Z,68.68
2023-04-04T20:45:12.719Z,62.70
2023-04-04T20:47:45.097Z,67.80
2023-04-04T20:50:45.464Z,67.18
2023-04-04T20:53:18.303Z,69.29
2023-04-04T20:55:46.003Z,62.57
2023-04-04T20:58:28.449Z,63.11
2023-04-04T21:00:58.332Z,67.67
2023-04-04T21:03:36.055Z,70.67
2023-04-04T21:06:13.579Z,71.35
2023-04-04T21:08:43.836Z,72.68
2023-04-04T21:11:13.515Z,59.85
2023-04-04T21:13:43.683Z,66.35
2023-04-04T21:16:13.508Z,57.47
2023-04-04T21:18:41.593Z,61.18
2023-04-04T21:21:15.925Z,62.64
2023-04-04T21:23:48.694Z,64.93
2023-04-04T21:26:28.714Z,69.97
2023-04-04T21:28:58.604Z,74.16
2023-04-04T21:31:33.504Z,76.81
2023-04-04T21:34:08.257Z,77.41
2023-04-04T21:36:37.592Z,86.32
2023-04-04T21:39:10.934Z,89.56
2023-04-04T21:41:39.823Z,85.45
2023-04-04T21:44:09.599Z,78.97
2023-04-04T21:46:39.031Z,108.68
2023-04-04T21:49:08.743Z,104.51
2023-04-04T21:51:38.020Z,98.77
2023-04-04T21:54:05.848Z,94.76
2023-04-04T21:56:33.929Z,87.24
2023-04-04T21:59:05.228Z,85.87
2023-04-04T22:01:32.962Z,100.91
2023-04-04T22:04:00.570Z,104.46
2023-04-04T22:06:28.852Z,102.85
2023-04-04T22:08:59.623Z,98.05
2023-04-04T22:11:28.175Z,115.04
2023-04-04T22:13:56.560Z,122.31
2023-04-04T22:16:24.177Z,137.81
2023-04-04T22:18:51.850Z,148.66
2023-04-04T22:21:20.177Z,132.94
2023-04-04T22:23:47.834Z,142.22
2023-04-04T22:26:16.925Z,136.47
2023-04-04T22:28:44.601Z,139.30
2023-04-04T22:31:12.809Z,126.61
2023-04-04T22:33:40.442Z,125.31
2023-04-04T22:36:08.810Z,144.93
2023-04-04T22:38:37.890Z,107.64
2023-04-04T22:41:07.769Z,134.94
2023-04-04T22:43:36.932Z,154.16
2023-04-04T22:46:04.634Z,147.37
2023-04-04T22:48:32.382Z,103.80
2023-04-04T22:51:00.138Z,133.89
2023-04-04T22:53:27.723Z,84.16
2023-04-04T22:55:55.395Z,168.82
2023-04-04T22:58:22.982Z,171.56
2023-04-04T23:00:55.368Z,103.35
2023-04-04T23:03:22.904Z,106.73
2023-04-04T23:05:50.446Z,101.10
2023-04-04T23:08:20.732Z,134.67
2023-04-04T23:10:49.018Z,117.25
2023-04-04T23:13:19.712Z,138.29
2023-04-04T23:15:47.540Z,130.51
2023-04-04T23:18:18.795Z,98.01
2023-04-04T23:20:46.401Z,121.30
2023-04-04T23:23:13.961Z,95.68
2023-04-04T23:25:43.823Z,110.11
2023-04-04T23:28:11.519Z,108.60
2023-04-04T23:30:39.545Z,84.27
2023-04-04T23:33:07.335Z,90.86
2023-04-04T23:35:36.828Z,115.52
2023-04-04T23:38:04.581Z,93.40
2023-04-04T23:40:32.359Z,119.40
2023-04-04T23:43:00.244Z,102.85
2023-04-04T23:45:33.145Z,179.26
2023-04-04T23:48:00.896Z,151.37
2023-04-04T23:50:28.627Z,97.65
2023-04-04T23:52:57.590Z,116.02
2023-04-04T23:55:25.241Z,81.20
2023-04-04T23:57:52.761Z,91.75
